עמוד ראשי
METAR-TAF:

METAR-TAF

שדות תעופה :

נמל התעופה הבינלאומי המלך פהד

דמאם, ערב הסעודית

קו רוחב: 26-28N, קו אורך: 049-47E, גובה: 22מטר

תצפית מזג אוויר נוכחית

הדו"ח נערך לפני 30דקות, בשעה 02:00 UTC
רוח 3קשר עם כיוונים משתנים
טמפרטורת 32 צלסיוס
לחות 20%
לחץ 996 hPa
ראות 10 קילומטר או יותר
ללא עננים שבסיסם נמוך מ 5000 רגל או קומולונימבוס

METAR: OEDF 220200Z VRB03KT CAVOK 32/06 Q0996 NOSIG

זמן: 05:30 (02:30 UTC)

תחזית

הדו"ח נערך לפני 4 שעות ו 30דקות, בשעה 22:00 UTC
תחזית בתוקף מ 22 ב 00 UTC עד 23 ב 06 UTC
רוח 7קשר מכיוון מערב
ראות 10 קילומטר או יותר
ללא עננים שבסיסם נמוך מ 5000 רגל או קומולונימבוס
יעשה מ
22 ב 05 UTC עד 22 ב 07 UTC
רוח 13קשר מכיוון צפון/צפון-מערב
יעשה מ
22 ב 19 UTC עד 22 ב 21 UTC
רוח 7קשר מכיוון מערב

TAF: OEDF 212200Z 2200/2306 27007KT CAVOK BECMG 2205/2207 34013KT BECMG 2219/2221 26007KT

תצפיות ותחזיות מזג אוויר לגבי יותר מ- 4,000 שדות תעופה ברחבי העולם. דוחות METAR ו- TAF.

התחנות הזמינות מסומנות בנקודות צהובות ואדומות על גבי המפה.

העבר את העכבר לנקודה הצבעונית על מנת לראות את שם התחנה.

לאחר מכן, לחץ כדי לראות את תוכן ואת תחזיות מזג האוויר.

כדי לשנות את המפה: לחץ על הכפתורים הירוקים עם הפלוס השחור כדי להתקרב; על הכפתור הירוק עם המקף כדי להתרחק; או בחיצים הירוקים למפות סמוכות.


METAR-TAF: